createdAt,value
2023-05-24T00:01:31.032Z,43.15
2023-05-24T00:04:04.453Z,44.00
2023-05-24T00:06:37.477Z,36.53
2023-05-24T00:09:09.724Z,34.70
2023-05-24T00:11:41.867Z,45.85
2023-05-24T00:14:19.979Z,42.40
2023-05-24T00:16:52.253Z,28.00
2023-05-24T00:19:24.640Z,30.88
2023-05-24T00:21:56.836Z,38.95
2023-05-24T00:24:29.044Z,39.72
2023-05-24T00:27:01.340Z,39.67
2023-05-24T00:29:33.576Z,36.65
2023-05-24T00:32:06.516Z,46.17
2023-05-24T00:34:38.878Z,34.88
2023-05-24T00:37:10.980Z,42.72
2023-05-24T00:39:44.510Z,40.30
2023-05-24T00:42:16.803Z,46.97
2023-05-24T00:44:49.431Z,49.55
2023-05-24T00:47:21.751Z,38.85
2023-05-24T00:50:00.333Z,44.40
2023-05-24T00:52:32.808Z,33.50
2023-05-24T00:55:06.021Z,26.85
2023-05-24T00:57:38.620Z,49.22
2023-05-24T01:00:11.611Z,29.80
2023-05-24T01:02:43.767Z,45.75
2023-05-24T01:05:17.765Z,37.83
2023-05-24T01:08:15.808Z,34.20
2023-05-24T01:11:23.102Z,35.17
2023-05-24T01:14:30.489Z,31.55
2023-05-24T01:17:16.042Z,43.38
2023-05-24T01:20:11.469Z,38.10
2023-05-24T01:23:07.794Z,33.25
2023-05-24T01:25:50.143Z,47.85
2023-05-24T01:28:24.500Z,32.95
2023-05-24T01:30:56.883Z,40.13
2023-05-24T01:33:29.870Z,54.65
2023-05-24T01:36:02.179Z,32.03
2023-05-24T01:38:34.411Z,34.40
2023-05-24T01:41:46.292Z,38.00
2023-05-24T01:45:18.100Z,32.13
2023-05-24T01:52:29.263Z,26.88
2023-05-24T02:03:09.031Z,42.95
2023-05-24T02:06:04.384Z,27.17
2023-05-24T02:08:39.156Z,42.63
2023-05-24T02:19:36.876Z,31.65
2023-05-24T02:26:14.221Z,46.53
2023-05-24T02:40:45.649Z,43.47
2023-05-24T02:47:23.683Z,37.50
2023-05-24T02:53:25.371Z,31.20
2023-05-24T02:56:43.609Z,23.92
2023-05-24T03:00:56.753Z,33.33
2023-05-24T03:03:53.588Z,33.35
2023-05-24T03:06:29.647Z,27.77
2023-05-24T03:13:20.991Z,40.20
2023-05-24T03:31:11.540Z,28.80
2023-05-24T03:34:43.289Z,43.65
2023-05-24T03:49:12.793Z,28.63
2023-05-24T03:52:27.096Z,29.13
2023-05-24T03:55:09.305Z,32.15
2023-05-24T03:58:28.535Z,31.88
2023-05-24T04:01:08.381Z,31.23
2023-05-24T04:03:59.109Z,43.90
2023-05-24T04:06:56.786Z,27.85
2023-05-24T04:09:29.839Z,45.35
2023-05-24T04:22:36.129Z,38.45
2023-05-24T04:25:16.216Z,32.35
2023-05-24T04:31:07.672Z,29.55
2023-05-24T04:33:45.217Z,37.05
2023-05-24T04:37:49.368Z,32.20
2023-05-24T04:40:52.665Z,36.92
2023-05-24T04:48:11.249Z,33.28
2023-05-24T04:51:25.492Z,32.95
2023-05-24T04:56:32.292Z,36.63
2023-05-24T04:59:08.647Z,28.63
2023-05-24T05:01:41.841Z,32.50
2023-05-24T05:04:19.859Z,27.25
2023-05-24T05:06:59.789Z,23.90
2023-05-24T05:09:33.080Z,37.60
2023-05-24T05:12:08.546Z,27.83
2023-05-24T05:14:53.114Z,30.02
2023-05-24T05:17:26.843Z,40.63
2023-05-24T05:20:01.901Z,35.47
2023-05-24T05:22:36.368Z,36.58
2023-05-24T05:25:12.443Z,34.83
2023-05-24T05:28:07.035Z,30.42
2023-05-24T05:30:45.504Z,29.80
2023-05-24T05:33:20.351Z,30.42
2023-05-24T05:35:55.129Z,34.13
2023-05-24T05:38:34.486Z,34.10
2023-05-24T05:41:09.194Z,25.63
2023-05-24T05:43:43.495Z,34.13
2023-05-24T05:46:23.646Z,28.88
2023-05-24T05:49:04.937Z,28.75
2023-05-24T05:55:18.157Z,29.77
2023-05-24T05:57:54.032Z,28.77
2023-05-24T06:05:08.097Z,33.40
2023-05-24T06:10:40.441Z,31.30
2023-05-24T06:16:09.315Z,32.03
2023-05-24T06:18:57.227Z,36.78
2023-05-24T06:22:07.156Z,24.40
2023-05-24T06:24:44.594Z,37.83
2023-05-24T06:27:17.609Z,37.63
2023-05-24T06:29:49.899Z,37.05
2023-05-24T06:32:22.364Z,34.45
2023-05-24T06:34:54.648Z,35.40
2023-05-24T06:37:26.900Z,29.85
2023-05-24T06:39:59.386Z,35.45
2023-05-24T06:42:31.713Z,37.05
2023-05-24T06:45:04.489Z,46.13
2023-05-24T06:47:37.502Z,27.17
2023-05-24T06:50:10.234Z,31.67
2023-05-24T06:52:44.172Z,24.20
2023-05-24T06:55:16.941Z,35.30
2023-05-24T06:57:49.481Z,32.83
2023-05-24T07:00:22.614Z,29.50
2023-05-24T07:02:55.157Z,28.23
2023-05-24T07:05:27.943Z,38.30
2023-05-24T07:08:00.520Z,36.03
2023-05-24T07:10:33.105Z,34.20
2023-05-24T07:13:05.678Z,44.67
2023-05-24T07:15:37.973Z,25.38
2023-05-24T07:18:10.622Z,27.83
2023-05-24T07:20:43.235Z,42.20
2023-05-24T07:23:15.991Z,39.00
2023-05-24T07:25:48.413Z,37.05
2023-05-24T07:28:20.609Z,32.28
2023-05-24T07:30:53.094Z,38.38
2023-05-24T07:33:25.575Z,35.08
2023-05-24T07:35:58.534Z,29.23
2023-05-24T07:38:31.434Z,30.58
2023-05-24T07:41:04.999Z,36.25
2023-05-24T07:43:37.932Z,29.38
2023-05-24T07:46:13.393Z,30.42
2023-05-24T07:48:46.307Z,43.30
2023-05-24T07:51:18.773Z,40.83
2023-05-24T07:53:51.553Z,31.30
2023-05-24T07:56:24.065Z,44.65
2023-05-24T07:59:03.848Z,42.08
2023-05-24T08:01:37.020Z,36.28
2023-05-24T08:04:13.126Z,36.72
2023-05-24T08:06:47.025Z,37.03
2023-05-24T08:09:19.315Z,48.15
2023-05-24T08:11:51.911Z,29.70
2023-05-24T08:14:24.217Z,34.75
2023-05-24T08:16:56.771Z,31.50
2023-05-24T08:19:35.900Z,34.05
2023-05-24T08:22:08.351Z,43.20
2023-05-24T08:24:40.990Z,30.13
2023-05-24T08:27:14.317Z,33.63
2023-05-24T08:29:46.865Z,40.28
2023-05-24T08:32:19.163Z,38.55
2023-05-24T08:34:57.762Z,31.95
2023-05-24T08:37:33.607Z,42.00
2023-05-24T08:40:09.911Z,31.20
2023-05-24T08:42:42.607Z,36.80
2023-05-24T08:45:16.378Z,42.20
2023-05-24T08:47:52.399Z,37.47
2023-05-24T08:50:25.177Z,36.67
2023-05-24T08:52:59.994Z,36.83
2023-05-24T08:55:33.628Z,35.03
2023-05-24T08:58:06.715Z,40.05
2023-05-24T09:00:39.049Z,46.97
2023-05-24T09:03:15.334Z,28.73
2023-05-24T09:05:48.299Z,37.47
2023-05-24T09:08:21.766Z,32.00
2023-05-24T09:10:56.430Z,39.40
2023-05-24T09:13:28.984Z,28.92
2023-05-24T09:16:02.661Z,28.77
2023-05-24T09:18:35.141Z,50.58
2023-05-24T09:21:08.851Z,36.75
2023-05-24T09:23:42.467Z,30.63
2023-05-24T09:26:15.053Z,29.40
2023-05-24T09:28:48.609Z,26.77
2023-05-24T09:31:32.722Z,41.55
2023-05-24T09:34:10.554Z,36.83
2023-05-24T09:36:43.476Z,34.75
2023-05-24T09:39:17.367Z,36.63
2023-05-24T09:41:57.491Z,28.30
2023-05-24T09:44:30.290Z,42.85
2023-05-24T09:47:06.974Z,24.13
2023-05-24T09:49:39.763Z,46.88
2023-05-24T09:52:17.978Z,32.28
2023-05-24T09:54:50.540Z,26.25
2023-05-24T09:57:25.597Z,22.38
2023-05-24T10:03:48.119Z,35.05
2023-05-24T10:06:21.755Z,34.15
2023-05-24T10:08:57.734Z,25.17
2023-05-24T10:11:30.167Z,39.63
2023-05-24T10:14:09.582Z,29.55
2023-05-24T10:17:00.734Z,28.98
2023-05-24T10:19:34.883Z,30.20
2023-05-24T10:22:09.277Z,33.60
2023-05-24T10:24:48.456Z,31.90
2023-05-24T10:27:32.017Z,32.95
2023-05-24T10:30:41.266Z,39.17
2023-05-24T10:33:15.082Z,31.65
2023-05-24T10:35:47.859Z,32.33
2023-05-24T10:38:24.719Z,25.88
2023-05-24T10:41:00.700Z,31.08
2023-05-24T10:43:33.263Z,32.72
2023-05-24T10:46:12.632Z,29.38
2023-05-24T10:48:45.888Z,23.73
2023-05-24T10:51:42.431Z,23.10
2023-05-24T10:54:24.925Z,24.13
2023-05-24T10:57:05.959Z,27.75
2023-05-24T10:59:45.538Z,20.05
2023-05-24T11:02:21.612Z,28.75
2023-05-24T11:04:58.064Z,19.48
2023-05-24T11:07:33.902Z,36.55
2023-05-24T11:10:15.378Z,42.08
2023-05-24T11:12:59.133Z,31.27
2023-05-24T11:15:31.341Z,23.30
2023-05-24T11:18:15.763Z,30.38
2023-05-24T11:20:48.963Z,19.70
2023-05-24T11:26:11.550Z,27.67
2023-05-24T11:28:47.987Z,25.65
2023-05-24T11:31:33.342Z,18.90
2023-05-24T11:34:10.118Z,19.30
2023-05-24T11:36:43.176Z,33.10
2023-05-24T11:39:16.484Z,21.92
2023-05-24T11:41:48.968Z,30.08
2023-05-24T11:44:22.365Z,27.70
2023-05-24T11:47:00.290Z,28.48
2023-05-24T11:52:13.359Z,23.77
2023-05-24T11:54:45.743Z,27.73
2023-05-24T11:57:26.563Z,24.88
2023-05-24T11:59:58.829Z,21.15
2023-05-24T12:02:34.576Z,21.73
2023-05-24T12:05:12.066Z,31.10
2023-05-24T12:07:49.067Z,24.77
2023-05-24T12:10:22.997Z,28.90
2023-05-24T12:12:55.329Z,21.27
2023-05-24T12:15:27.565Z,26.40
2023-05-24T12:18:00.353Z,35.63
2023-05-24T12:20:32.598Z,25.35
2023-05-24T12:23:04.747Z,34.92
2023-05-24T12:25:38.162Z,31.33
2023-05-24T12:28:10.669Z,28.50
2023-05-24T12:30:45.198Z,32.17
2023-05-24T12:33:20.777Z,39.65
2023-05-24T12:35:55.595Z,20.85
2023-05-24T12:38:35.690Z,25.40
2023-05-24T12:41:13.695Z,29.83
2023-05-24T12:43:46.433Z,20.35
2023-05-24T12:46:18.614Z,29.25
2023-05-24T12:48:50.751Z,28.10
2023-05-24T12:51:23.209Z,25.40
2023-05-24T12:55:15.132Z,33.58
2023-05-24T12:57:54.741Z,32.40
2023-05-24T13:00:29.050Z,35.28
2023-05-24T13:03:01.420Z,26.63
2023-05-24T13:05:33.695Z,31.85
2023-05-24T13:08:05.921Z,29.67
2023-05-24T13:10:44.015Z,26.85
2023-05-24T13:13:16.464Z,39.28
2023-05-24T13:15:49.192Z,29.20
2023-05-24T13:18:21.393Z,30.65
2023-05-24T13:20:53.631Z,32.85
2023-05-24T13:23:25.811Z,27.83
2023-05-24T13:25:58.151Z,31.23
2023-05-24T13:28:34.457Z,33.63
2023-05-24T13:31:06.914Z,33.88
2023-05-24T13:33:39.705Z,27.60
2023-05-24T13:36:12.516Z,28.40
2023-05-24T13:38:45.129Z,30.80
2023-05-24T13:41:17.280Z,28.38
2023-05-24T13:43:50.823Z,24.60
2023-05-24T13:46:23.787Z,22.73
2023-05-24T13:48:57.386Z,30.10
2023-05-24T13:52:58.470Z,31.58
2023-05-24T13:55:37.963Z,34.75
2023-05-24T13:58:10.557Z,29.33
2023-05-24T14:00:43.229Z,21.63
2023-05-24T14:03:16.122Z,20.65
2023-05-24T14:05:48.898Z,25.30
2023-05-24T14:08:21.355Z,32.40
2023-05-24T14:10:53.944Z,23.50
2023-05-24T14:14:20.370Z,23.60
2023-05-24T14:16:19.111Z,18.67
2023-05-24T14:18:52.162Z,23.83
2023-05-24T14:21:27.568Z,39.92
2023-05-24T14:24:00.299Z,29.20
2023-05-24T14:26:32.856Z,24.35
2023-05-24T14:29:05.218Z,30.55
2023-05-24T14:31:42.498Z,24.42
2023-05-24T14:34:14.742Z,24.30
2023-05-24T14:36:48.306Z,18.88
2023-05-24T14:39:20.647Z,24.10
2023-05-24T14:41:52.818Z,21.88
2023-05-24T14:44:25.030Z,30.10
2023-05-24T14:46:57.154Z,17.75
2023-05-24T14:49:29.408Z,22.92
2023-05-24T14:52:02.023Z,23.48
2023-05-24T14:54:34.165Z,21.70
2023-05-24T14:57:08.075Z,31.48
2023-05-24T14:59:40.956Z,17.92
2023-05-24T15:02:13.165Z,17.50
2023-05-24T15:04:45.304Z,26.95
2023-05-24T15:07:17.952Z,18.75
2023-05-24T15:09:50.063Z,19.50
2023-05-24T15:12:23.243Z,18.88
2023-05-24T15:14:55.357Z,22.83
2023-05-24T15:17:27.751Z,15.13
2023-05-24T15:20:00.189Z,21.45
2023-05-24T15:22:33.637Z,18.70
2023-05-24T15:25:43.285Z,20.00
2023-05-24T15:28:17.350Z,18.17
2023-05-24T15:30:49.885Z,22.58
2023-05-24T15:33:22.181Z,19.42
2023-05-24T15:35:55.058Z,24.05
2023-05-24T15:38:27.174Z,21.38
2023-05-24T15:40:59.310Z,20.15
2023-05-24T15:43:31.954Z,20.45
2023-05-24T15:46:06.093Z,21.20
2023-05-24T15:48:39.302Z,23.42
2023-05-24T15:53:48.394Z,17.73
2023-05-24T15:56:21.784Z,25.38
2023-05-24T15:58:54.045Z,19.00
2023-05-24T16:01:26.260Z,28.50
2023-05-24T16:03:58.400Z,28.65
2023-05-24T16:06:33.763Z,30.20
2023-05-24T16:09:07.249Z,27.15
2023-05-24T16:11:39.418Z,21.67
2023-05-24T16:14:11.661Z,27.80
2023-05-24T16:16:44.759Z,21.83
2023-05-24T16:19:17.182Z,22.73
2023-05-24T16:21:49.372Z,14.38
2023-05-24T16:24:21.545Z,28.50
2023-05-24T16:26:53.630Z,21.23
2023-05-24T16:29:26.891Z,22.15
2023-05-24T16:31:59.148Z,25.83
2023-05-24T16:34:38.732Z,28.02
2023-05-24T16:37:17.564Z,24.50
2023-05-24T16:39:49.723Z,21.67
2023-05-24T16:42:21.932Z,37.15
2023-05-24T16:44:54.232Z,21.98
2023-05-24T16:47:29.467Z,17.73
2023-05-24T16:50:04.189Z,19.80
2023-05-24T16:52:36.580Z,18.45
2023-05-24T16:55:10.899Z,22.45
2023-05-24T16:57:43.103Z,29.17
2023-05-24T17:00:34.156Z,20.77
2023-05-24T17:03:06.767Z,14.73
2023-05-24T17:05:39.705Z,21.75
2023-05-24T17:08:11.937Z,25.45
2023-05-24T17:10:44.311Z,18.45
2023-05-24T17:13:16.496Z,20.15
2023-05-24T17:15:52.065Z,14.65
2023-05-24T17:18:28.751Z,18.20
2023-05-24T17:21:03.542Z,18.85
2023-05-24T17:23:39.877Z,23.08
2023-05-24T17:26:14.974Z,17.30
2023-05-24T17:28:47.315Z,15.45
2023-05-24T17:31:19.698Z,19.92
2023-05-24T17:33:51.971Z,21.98
2023-05-24T17:36:24.235Z,19.92
2023-05-24T17:38:56.417Z,20.02
2023-05-24T17:41:28.652Z,18.25
2023-05-24T17:44:01.140Z,16.10
2023-05-24T17:46:35.757Z,20.48
2023-05-24T17:49:08.626Z,20.88
2023-05-24T17:51:40.919Z,17.83
2023-05-24T17:54:13.091Z,20.95
2023-05-24T17:56:45.320Z,14.27
2023-05-24T17:59:17.591Z,17.73
2023-05-24T18:01:49.864Z,19.48
2023-05-24T18:04:22.215Z,20.30
2023-05-24T18:06:55.572Z,23.23
2023-05-24T18:09:27.675Z,22.23
2023-05-24T18:11:59.775Z,29.55
2023-05-24T18:14:32.301Z,19.48
2023-05-24T18:17:05.171Z,14.02
2023-05-24T18:19:37.802Z,15.40
2023-05-24T18:22:09.920Z,14.90
2023-05-24T18:24:42.016Z,22.52
2023-05-24T18:27:14.316Z,17.45
2023-05-24T18:29:46.632Z,21.17
2023-05-24T18:32:20.036Z,21.65
2023-05-24T18:34:55.145Z,22.13
2023-05-24T18:37:28.229Z,20.40
2023-05-24T18:40:00.793Z,17.95
2023-05-24T18:42:33.080Z,20.15
2023-05-24T18:45:06.099Z,19.27
2023-05-24T18:47:38.703Z,19.58
2023-05-24T18:50:11.562Z,18.90
2023-05-24T18:52:47.228Z,22.27
2023-05-24T18:55:19.431Z,19.20
2023-05-24T18:57:51.748Z,18.27
2023-05-24T19:00:24.734Z,23.50
2023-05-24T19:02:57.093Z,17.60
2023-05-24T19:05:29.412Z,22.92
2023-05-24T19:08:01.583Z,18.63
2023-05-24T19:10:35.520Z,14.65
2023-05-24T19:13:07.957Z,22.23
2023-05-24T19:15:40.121Z,20.38
2023-05-24T19:18:12.221Z,15.57
2023-05-24T19:20:44.441Z,14.82
2023-05-24T19:23:16.631Z,17.45
2023-05-24T19:25:50.562Z,13.10
2023-05-24T19:28:22.927Z,12.82
2023-05-24T19:30:55.152Z,20.70
2023-05-24T19:33:27.357Z,18.48
2023-05-24T19:35:59.675Z,22.08
2023-05-24T19:38:31.958Z,16.10
2023-05-24T19:41:22.452Z,15.57
2023-05-24T19:43:58.744Z,17.27
2023-05-24T19:46:33.427Z,19.48
2023-05-24T19:49:05.772Z,19.50
2023-05-24T19:51:38.482Z,17.75
2023-05-24T19:54:11.343Z,19.95
2023-05-24T19:56:43.640Z,15.98
2023-05-24T19:59:15.922Z,24.38
2023-05-24T20:01:48.069Z,22.08
2023-05-24T20:04:20.308Z,23.73
2023-05-24T20:07:54.012Z,19.83
2023-05-24T20:10:27.830Z,21.48
2023-05-24T20:13:00.029Z,16.15
2023-05-24T20:15:32.465Z,15.57
2023-05-24T20:18:04.745Z,19.67
2023-05-24T20:21:23.538Z,16.25
2023-05-24T20:23:58.433Z,17.85
2023-05-24T20:26:33.554Z,17.33
2023-05-24T20:29:05.781Z,24.90
2023-05-24T20:31:38.072Z,27.90
2023-05-24T20:34:10.264Z,25.52
2023-05-24T20:36:43.940Z,19.30
2023-05-24T20:39:16.390Z,25.75
2023-05-24T20:41:48.513Z,22.38
2023-05-24T20:44:20.610Z,26.25
2023-05-24T20:46:52.730Z,21.77
2023-05-24T20:49:24.798Z,17.45
2023-05-24T20:51:58.797Z,20.23
2023-05-24T20:54:31.182Z,25.17
2023-05-24T20:57:03.476Z,21.63
2023-05-24T20:59:36.026Z,22.10
2023-05-24T21:02:08.197Z,18.92
2023-05-24T21:04:40.534Z,20.55
2023-05-24T21:07:12.638Z,18.40
2023-05-24T21:09:44.759Z,16.48
2023-05-24T21:12:16.944Z,20.15
2023-05-24T21:14:49.424Z,20.25
2023-05-24T21:17:21.643Z,17.15
2023-05-24T21:19:53.909Z,24.77
2023-05-24T21:22:26.130Z,23.98
2023-05-24T21:24:58.500Z,22.92
2023-05-24T21:27:33.199Z,16.58
2023-05-24T21:30:05.932Z,20.52
2023-05-24T21:32:38.254Z,23.85
2023-05-24T21:35:10.482Z,22.75
2023-05-24T21:37:42.706Z,20.42
2023-05-24T21:40:14.825Z,21.35
2023-05-24T21:42:46.951Z,25.08
2023-05-24T21:45:19.056Z,20.00
2023-05-24T21:47:51.363Z,23.85
2023-05-24T21:50:23.644Z,22.38
2023-05-24T21:52:55.885Z,15.65
2023-05-24T21:55:29.668Z,15.05
2023-05-24T21:58:01.816Z,29.55
2023-05-24T22:00:37.832Z,15.68
2023-05-24T22:03:13.115Z,20.30
2023-05-24T22:05:45.461Z,17.88
2023-05-24T22:08:19.848Z,15.45
2023-05-24T22:10:52.156Z,21.83
2023-05-24T22:13:24.462Z,17.25
2023-05-24T22:15:56.927Z,16.13
2023-05-24T22:18:30.760Z,18.17
2023-05-24T22:21:08.705Z,19.65
2023-05-24T22:23:41.584Z,25.00
2023-05-24T22:26:17.350Z,16.27
2023-05-24T22:29:00.780Z,20.55
2023-05-24T22:31:34.073Z,16.75
2023-05-24T22:34:11.541Z,25.35
2023-05-24T22:36:46.810Z,21.65
2023-05-24T22:39:19.351Z,17.80
2023-05-24T22:41:53.039Z,20.92
2023-05-24T22:44:26.572Z,27.23
2023-05-24T22:46:58.732Z,18.00
2023-05-24T22:49:34.444Z,24.95
2023-05-24T22:52:07.220Z,17.08
2023-05-24T22:54:39.328Z,19.95
2023-05-24T22:57:11.442Z,21.00
2023-05-24T22:59:45.997Z,20.70
2023-05-24T23:02:18.255Z,19.58
2023-05-24T23:04:50.425Z,25.73
2023-05-24T23:07:22.542Z,23.90
2023-05-24T23:09:54.933Z,24.70
2023-05-24T23:12:27.045Z,26.08
2023-05-24T23:14:59.688Z,28.42
2023-05-24T23:17:31.810Z,28.00
2023-05-24T23:20:05.281Z,17.30
2023-05-24T23:22:37.826Z,21.48
2023-05-24T23:25:10.704Z,18.50
2023-05-24T23:27:42.876Z,22.20
2023-05-24T23:30:15.171Z,18.83
2023-05-24T23:32:47.324Z,28.00
2023-05-24T23:35:19.570Z,23.23
2023-05-24T23:37:53.479Z,17.83
2023-05-24T23:40:28.792Z,19.13
2023-05-24T23:43:01.034Z,20.73
2023-05-24T23:45:33.177Z,20.73
2023-05-24T23:48:05.908Z,21.55
2023-05-24T23:50:53.143Z,25.90
2023-05-24T23:53:26.024Z,23.15
2023-05-24T23:55:58.139Z,20.60
2023-05-24T23:58:30.389Z,25.95
